Terminal Aerodrome Forecast
Issued by NWS Missoula, MT

Home | Current Version | Previous Version | Text Only | Print | Product List | Glossary On
Versions: 1 2 3 4 5 6 7 8 9 10 11 12 13 14 15 16 17
653
FTUS45 KMSO 170536 CCA
TAFMSO
TAF COR
KMSO 170536Z 1706/1806 13005KT 6SM HZ SCT120
     FM171200 VRB03KT 3SM BR VCFG SCT002 SCT100
     FM171800 VRB03KT P6SM BKN080
      AMD LTD TO CLD VIS AND WIND=

USA.gov is the U.S. government's official web portal to all federal, state and local government web resources and services.